Terminal Aerodrome Forecast
Issued by NWS

Home | Current Version | Previous Version | Text Only | Print | Product List | Glossary On
Versions: 1 2 3 4 5 6 7 8 9 10 11 12 13 14 15 16 17 18
564
FTUS45 KPIH 250523
TAFSUN
TAF
KSUN 250523Z 2506/2612 31006KT P6SM FEW030
     FM251800 12006KT P6SM SCT025 SCT090 BKN150
     FM252100 14006KT P6SM FEW015 BKN080 BKN150
     FM260000 13006KT P6SM FEW080 SCT180
     FM260200 31006KT P6SM FEW180
      AMD LTD TO CLD VIS AND WIND TIL 251300=

USA.gov is the U.S. government's official web portal to all federal, state and local government web resources and services.